Terminal Aerodrome Forecast
Issued by NWS

Home | Current Version | Previous Version | Text Only | Print | Product List | Glossary On
Versions: 1 2 3 4 5 6 7 8 9 10 11 12 13
000
FTUS45 KFGZ 280500
TAFPRC
TAF
KPRC 280532Z 2806/0106 16008KT P6SM BKN080
     FM281100 22014KT P6SM SCT050 BKN080
     FM281500 22016G30KT P6SM SCT050 OVC060 PROB30 2815/2820 5SM
      -SHRA BR BKN050
     FM010100 23013KT P6SM SCT040 OVC060=

USA.gov is the U.S. government's official web portal to all federal, state and local government web resources and services.